Time;durP1;ratioP1;P1;durP2;ratioP2;P2;SDS_P1;SDS_P2;PMS_P1;PMS_P2;Temp;Humidity;BMP_temperature;BMP_pressure;BME280_temperature;BME280_humidity;BME280_pressure;Samples;Min_cycle;Max_cycle;Signal;HPM_P1;HPM_P2
2023/03/15 00:03:10;;;;;;;10.73;2.60;;;;;;;-1.50;100.00;95736.91;10331903;28;20233;-60
2023/03/15 00:08:11;;;;;;;14.23;2.70;;;;;;;-1.65;100.00;95743.13;10331664;28;20213;-60
2023/03/15 00:13:12;;;;;;;17.17;2.30;;;;;;;-1.75;100.00;95750.59;10332037;28;20212;-61
2023/03/15 00:18:13;;;;;;;9.70;2.00;;;;;;;-1.73;100.00;95764.19;10331186;28;20344;-60
2023/03/15 00:23:14;;;;;;;7.90;2.37;;;;;;;-1.72;100.00;95770.13;10331605;28;20214;-60
2023/03/15 00:28:15;;;;;;;9.77;2.00;;;;;;;-1.58;100.00;95777.69;10330764;28;20335;-61
2023/03/15 00:33:15;;;;;;;16.00;2.17;;;;;;;-1.67;100.00;95792.00;10331102;28;20268;-60
2023/03/15 00:38:16;;;;;;;18.60;2.70;;;;;;;-1.54;100.00;95797.13;10345634;28;20260;-57
2023/03/15 00:43:16;;;;;;;12.80;2.37;;;;;;;-1.49;100.00;95794.22;10329081;28;20230;-60
2023/03/15 00:48:17;;;;;;;8.40;2.40;;;;;;;-1.54;100.00;95811.72;10330589;28;20300;-57
2023/03/15 00:53:17;;;;;;;6.77;1.73;;;;;;;-1.52;100.00;95818.38;10330115;28;20190;-60
2023/03/15 00:58:17;;;;;;;6.17;1.80;;;;;;;-1.56;100.00;95818.69;10329827;28;20216;-59
2023/03/15 01:03:18;;;;;;;15.50;2.50;;;;;;;-1.36;100.00;95814.75;10329996;28;20246;-58
2023/03/15 01:08:18;;;;;;;13.83;2.10;;;;;;;-1.31;100.00;95820.41;10328032;28;20213;-60
2023/03/15 01:13:18;;;;;;;12.20;2.10;;;;;;;-1.12;100.00;95817.38;10329212;28;20233;-59
2023/03/15 01:18:19;;;;;;;10.83;2.47;;;;;;;-1.02;100.00;95810.69;10327575;28;20218;-56
2023/03/15 01:23:19;;;;;;;9.27;2.00;;;;;;;-1.01;100.00;95809.75;10328984;28;20352;-58
2023/03/15 01:28:20;;;;;;;9.17;2.00;;;;;;;-1.14;100.00;95820.06;10343769;28;20237;-59
2023/03/15 01:33:21;;;;;;;5.93;2.20;;;;;;;-1.24;100.00;95825.94;10327331;28;20269;-61
2023/03/15 01:38:22;;;;;;;16.30;2.07;;;;;;;-1.16;100.00;95815.97;10327257;28;20692;-57
2023/03/15 01:43:24;;;;;;;5.97;1.83;;;;;;;-1.09;100.00;95823.16;10343282;28;20700;-58
2023/03/15 01:48:43;;;;;;;14.60;2.70;;;;;;;-1.25;100.00;95814.84;10342790;28;20688;-58
2023/03/15 01:53:47;;;;;;;11.10;2.40;;;;;;;-1.44;100.00;95822.97;10328410;28;20192;-61
2023/03/15 01:58:50;;;;;;;8.77;2.00;;;;;;;-1.53;100.00;95829.59;10342928;28;20212;-60
2023/03/15 02:04:02;;;;;;;9.10;1.93;;;;;;;-1.66;100.00;95828.78;10334161;28;20351;-62
2023/03/15 02:09:13;;;;;;;9.93;2.37;;;;;;;-1.85;100.00;95839.47;10407297;28;20215;-62
2023/03/15 02:14:14;;;;;;;14.77;2.77;;;;;;;-1.85;100.00;95842.84;10407446;28;20560;-63
2023/03/15 02:19:30;;;;;;;16.47;2.53;;;;;;;-1.91;100.00;95853.50;10406764;28;20290;-62
2023/03/15 02:24:33;;;;;;;10.53;2.07;;;;;;;-1.92;100.00;95854.41;10406883;28;20229;-63
2023/03/15 02:29:34;;;;;;;6.93;2.37;;;;;;;-1.98;100.00;95849.69;10404172;22;20340;-60
2023/03/15 02:34:34;;;;;;;10.63;2.17;;;;;;;-2.05;100.00;95862.13;10406579;28;20185;-60
2023/03/15 02:39:36;;;;;;;12.63;3.00;;;;;;;-2.11;100.00;95866.81;10364494;28;20212;-60
2023/03/15 02:44:39;;;;;;;9.27;2.47;;;;;;;-2.06;100.00;95864.78;10348840;28;20221;-58
2023/03/15 02:49:42;;;;;;;12.53;2.30;;;;;;;-2.18;100.00;95862.06;10365269;28;20209;-59
2023/03/15 02:54:43;;;;;;;7.47;2.33;;;;;;;-2.03;100.00;95869.72;10348567;28;20185;-61
2023/03/15 02:59:44;;;;;;;9.93;2.63;;;;;;;-2.07;100.00;95866.50;10365238;28;20219;-61
2023/03/15 03:04:46;;;;;;;17.23;2.93;;;;;;;-2.33;100.00;95881.00;10354662;28;20213;-61
2023/03/15 03:09:46;;;;;;;8.23;2.07;;;;;;;-2.39;100.00;95905.34;10356835;28;20212;-60
2023/03/15 03:14:48;;;;;;;9.07;2.00;;;;;;;-2.44;100.00;95927.06;10356516;28;20231;-59
2023/03/15 03:19:51;;;;;;;12.07;2.20;;;;;;;-2.25;100.00;95926.69;10356383;28;20209;-60
2023/03/15 03:24:56;;;;;;;10.27;2.53;;;;;;;-2.35;100.00;95923.91;10373591;28;20249;-61
2023/03/15 03:29:57;;;;;;;13.43;2.50;;;;;;;-2.50;100.00;95928.25;10355370;28;20319;-61
2023/03/15 03:34:58;;;;;;;22.37;5.70;;;;;;;-2.62;100.00;95941.81;10356237;28;20205;-60
2023/03/15 03:39:58;;;;;;;22.27;5.63;;;;;;;-2.52;100.00;95943.72;10371941;28;21113;-61
2023/03/15 03:44:59;;;;;;;28.10;8.60;;;;;;;-2.33;100.00;95947.72;10355075;28;20308;-61
2023/03/15 03:50:05;;;;;;;17.97;7.47;;;;;;;-2.31;100.00;95953.59;10354721;28;20554;-60
2023/03/15 03:55:06;;;;;;;14.10;6.40;;;;;;;-2.30;100.00;95956.97;10366897;28;20495;-59
2023/03/15 04:00:09;;;;;;;9.83;3.13;;;;;;;-2.43;100.00;95956.91;10371592;28;20691;-62
2023/03/15 04:05:15;;;;;;;16.63;2.60;;;;;;;-2.70;100.00;95968.75;10342699;28;20284;-61
2023/03/15 04:10:16;;;;;;;7.33;2.17;;;;;;;-2.60;100.00;95979.28;10313873;28;20212;-62
2023/03/15 04:15:23;;;;;;;6.90;2.17;;;;;;;-2.63;100.00;95981.22;10313343;28;20265;-61
2023/03/15 04:20:25;;;;;;;14.00;2.17;;;;;;;-2.84;100.00;95989.28;10313358;28;20206;-60
2023/03/15 04:25:26;;;;;;;13.37;2.53;;;;;;;-2.93;100.00;96003.44;10330139;28;20221;-60
2023/03/15 04:30:41;;;;;;;15.10;2.67;;;;;;;-2.93;100.00;96013.72;10312694;28;20259;-60
2023/03/15 04:36:01;;;;;;;11.33;2.30;;;;;;;-2.85;100.00;96027.81;10330555;28;20193;-61
2023/03/15 04:41:15;;;;;;;8.97;2.37;;;;;;;-3.03;100.00;96025.44;10312860;28;20217;-60
2023/03/15 04:46:31;;;;;;;17.10;2.37;;;;;;;-2.90;100.00;96046.03;10329163;28;20189;-61
2023/03/15 04:51:48;;;;;;;6.00;2.07;;;;;;;-2.92;100.00;96048.69;10312086;28;20190;-61
2023/03/15 04:57:04;;;;;;;12.70;2.07;;;;;;;-2.85;100.00;96054.25;10312336;28;20209;-61
2023/03/15 05:02:32;;;;;;;6.70;1.90;;;;;;;-2.39;100.00;96066.06;10329454;28;20236;-61
2023/03/15 05:07:42;;;;;;;14.10;2.80;;;;;;;-2.25;100.00;96063.50;10311999;28;20281;-61
2023/03/15 05:12:55;;;;;;;8.80;2.10;;;;;;;-2.30;100.00;96065.50;10311508;28;20221;-61
2023/03/15 05:18:10;;;;;;;10.60;2.17;;;;;;;-2.17;100.00;96068.97;10311261;28;20214;-62
2023/03/15 05:23:18;;;;;;;9.63;2.27;;;;;;;-2.12;100.00;96073.03;10328311;28;20719;-61
2023/03/15 05:28:28;;;;;;;12.30;2.57;;;;;;;-2.13;100.00;96073.94;10327711;28;20717;-61
2023/03/15 05:33:45;;;;;;;17.17;2.33;;;;;;;-2.11;100.00;96080.63;10311054;28;20188;-61
2023/03/15 05:39:03;;;;;;;8.47;1.93;;;;;;;-2.17;100.00;96081.81;10310387;28;20348;-61
2023/03/15 05:44:31;;;;;;;8.93;1.70;;;;;;;-2.02;100.00;96089.47;10310416;28;20225;-61
2023/03/15 05:49:51;;;;;;;4.87;1.73;;;;;;;-2.08;100.00;96090.69;10327205;28;20707;-62
2023/03/15 05:55:14;;;;;;;6.67;2.00;;;;;;;-2.08;100.00;96108.66;10327773;28;20269;-62
2023/03/15 06:00:26;;;;;;;8.20;2.07;;;;;;;-1.92;100.00;96112.84;10309572;28;20762;-62
2023/03/15 06:05:33;;;;;;;9.63;1.77;;;;;;;-1.89;100.00;96130.63;10309722;28;20228;-60
2023/03/15 06:10:36;;;;;;;13.77;2.70;;;;;;;-1.85;100.00;96132.91;10295742;28;20633;-62
2023/03/15 06:15:40;;;;;;;10.17;1.63;;;;;;;-1.74;100.00;96141.72;10269467;28;20563;-61
2023/03/15 06:20:43;;;;;;;11.87;4.27;;;;;;;-1.62;100.00;96154.59;10269293;28;20233;-62
2023/03/15 06:25:47;;;;;;;6.20;1.80;;;;;;;-1.59;100.00;96152.75;10300389;28;20214;-59
2023/03/15 06:30:48;;;;;;;9.80;2.37;;;;;;;-1.23;100.00;96159.88;10324463;28;20613;-61
2023/03/15 06:35:49;;;;;;;6.13;1.67;;;;;;;-0.58;100.00;96150.59;10324744;28;20185;-58
2023/03/15 06:40:49;;;;;;;10.13;2.50;;;;;;;-0.38;100.00;96134.63;10324749;28;20277;-61
2023/03/15 06:45:49;;;;;;;8.87;2.20;;;;;;;0.40;100.00;96134.50;10324435;28;20224;-60
2023/03/15 06:50:50;;;;;;;3.97;2.03;;;;;;;0.19;100.00;96129.94;10324937;28;20216;-60
2023/03/15 06:55:51;;;;;;;12.17;2.00;;;;;;;0.94;100.00;96131.50;10324555;28;20186;-58
2023/03/15 07:00:51;;;;;;;7.57;1.93;;;;;;;0.46;100.00;96144.38;10325758;28;20209;-60
2023/03/15 07:05:53;;;;;;;7.70;2.03;;;;;;;0.10;100.00;96156.31;10303484;28;20216;-61
2023/03/15 07:10:53;;;;;;;16.17;2.87;;;;;;;1.45;100.00;96147.59;10310950;28;20375;-58
2023/03/15 07:15:55;;;;;;;11.10;2.20;;;;;;;0.39;100.00;96158.63;10309418;28;20182;-57
2023/03/15 07:20:59;;;;;;;7.30;2.07;;;;;;;1.33;100.00;96157.06;10305159;28;20202;-60
2023/03/15 07:26:00;;;;;;;9.83;2.00;;;;;;;1.19;98.60;96146.00;10303879;28;20213;-60
2023/03/15 07:31:02;;;;;;;13.83;2.90;;;;;;;1.24;98.30;96151.66;10303910;28;20238;-60
2023/03/15 07:36:04;;;;;;;10.37;2.67;;;;;;;1.55;96.90;96143.41;10303120;28;20687;-56
2023/03/15 07:41:05;;;;;;;15.17;2.77;;;;;;;1.24;97.10;96154.22;10304451;28;20261;-62
2023/03/15 07:46:06;;;;;;;14.40;2.33;;;;;;;1.76;94.28;96140.94;10303041;28;20296;-61
2023/03/15 07:51:06;;;;;;;5.43;1.57;;;;;;;2.16;91.73;96122.41;10311263;28;20350;-60
2023/03/15 07:56:07;;;;;;;14.20;2.73;;;;;;;0.87;91.30;96122.56;10312189;28;20333;-58
2023/03/15 08:01:08;;;;;;;13.97;2.30;;;;;;;1.42;90.57;96130.56;10307298;28;20306;-59
2023/03/15 08:06:08;;;;;;;11.10;2.53;;;;;;;1.64;90.70;96144.44;10300829;28;20201;-59
2023/03/15 08:11:09;;;;;;;7.33;1.83;;;;;;;2.09;88.30;96118.66;10320692;28;20308;-56
2023/03/15 08:16:09;;;;;;;7.47;2.17;;;;;;;1.64;87.67;96124.63;10329819;28;20672;-60
2023/03/15 08:21:09;;;;;;;12.93;2.10;;;;;;;1.65;86.77;96113.34;10327492;28;20220;-61
2023/03/15 08:26:10;;;;;;;8.77;1.70;;;;;;;2.35;86.50;96126.16;10327963;28;20190;-60
2023/03/15 08:31:12;;;;;;;5.87;1.90;;;;;;;1.85;87.26;96145.41;10329426;28;20229;-58
2023/03/15 08:36:13;;;;;;;8.60;2.17;;;;;;;2.06;84.98;96118.91;10393684;23;20263;-60
2023/03/15 08:41:13;;;;;;;11.23;2.63;;;;;;;2.41;84.25;96118.72;10389707;28;20203;-59
2023/03/15 08:46:13;;;;;;;10.07;2.23;;;;;;;1.85;82.93;96106.66;10390082;28;20209;-61
2023/03/15 08:51:14;;;;;;;9.23;1.47;;;;;;;2.16;80.81;96099.16;10390079;28;20268;-60
2023/03/15 08:56:14;;;;;;;7.87;2.10;;;;;;;2.57;81.68;96122.69;10390486;28;20219;-59
2023/03/15 09:01:15;;;;;;;11.00;2.00;;;;;;;2.81;82.18;96150.94;10400997;28;20219;-59
2023/03/15 09:06:15;;;;;;;15.63;2.27;;;;;;;2.07;86.45;96214.38;10412593;28;20219;-59
2023/03/15 09:11:15;;;;;;;14.23;2.20;;;;;;;1.96;90.89;96268.59;10407348;28;20220;-59
2023/03/15 09:16:16;;;;;;;11.87;2.13;;;;;;;1.52;94.53;96290.75;10411022;28;20247;-59
2023/03/15 09:21:16;;;;;;;11.93;2.23;;;;;;;0.90;99.59;96308.00;10412137;28;20571;-59
2023/03/15 09:26:17;;;;;;;8.57;2.03;;;;;;;0.87;100.00;96298.75;10412164;28;20331;-63
2023/03/15 09:31:17;;;;;;;8.80;2.20;;;;;;;0.59;100.00;96310.09;10408359;28;20196;-62
2023/03/15 09:36:17;;;;;;;13.40;2.83;;;;;;;0.56;100.00;96307.75;10411736;28;20270;-63
2023/03/15 09:41:38;;;;;;;9.90;2.57;;;;;;;0.56;100.00;96315.47;10411290;28;20306;-61
2023/03/15 09:46:58;;;;;;;8.70;2.60;;;;;;;0.49;100.00;96327.13;10409955;28;20239;-64
2023/03/15 09:52:25;;;;;;;9.57;2.50;;;;;;;0.39;100.00;96334.66;10410889;28;20190;-62
2023/03/15 09:57:35;;;;;;;12.67;4.03;;;;;;;0.44;100.00;96332.59;10410683;28;20222;-63
2023/03/15 10:02:38;;;;;;;11.17;2.40;;;;;;;0.65;100.00;96338.03;10393531;28;20223;-63
2023/03/15 10:07:38;;;;;;;5.17;2.57;;;;;;;0.92;100.00;96336.25;10410647;28;20240;-60
2023/03/15 10:12:42;;;;;;;9.27;2.80;;;;;;;0.82;100.00;96336.06;10409763;28;20615;-61
2023/03/15 10:17:58;;;;;;;4.83;2.67;;;;;;;0.77;100.00;96346.69;10390831;28;20212;-59
2023/03/15 10:23:18;;;;;;;11.23;4.00;;;;;;;0.77;100.00;96351.03;10407341;28;20230;-58
2023/03/15 10:28:30;;;;;;;8.77;3.30;;;;;;;0.50;100.00;96349.41;10410223;28;20211;-59
2023/03/15 10:33:33;;;;;;;11.67;3.07;;;;;;;0.77;100.00;96351.03;10408428;28;20229;-61
2023/03/15 10:38:33;;;;;;;5.30;2.50;;;;;;;0.69;100.00;96357.53;10384099;28;20213;-58
2023/03/15 10:43:36;;;;;;;5.73;2.43;;;;;;;0.76;100.00;96355.34;10396442;28;20714;-60
2023/03/15 10:48:39;;;;;;;9.70;3.17;;;;;;;1.23;100.00;96355.59;10408207;28;20196;-60
2023/03/15 10:53:51;;;;;;;6.50;2.80;;;;;;;1.32;100.00;96326.56;10399165;28;20580;-59
2023/03/15 10:58:54;;;;;;;10.33;2.80;;;;;;;1.18;100.00;96339.59;10395505;28;20681;-60
2023/03/15 11:04:12;;;;;;;10.90;3.57;;;;;;;1.52;100.00;96334.66;10387877;28;20228;-62
2023/03/15 11:09:15;;;;;;;8.20;3.43;;;;;;;1.42;100.00;96324.97;10369514;28;20197;-60
2023/03/15 11:14:17;;;;;;;8.10;2.83;;;;;;;1.60;100.00;96335.72;10368193;28;20270;-60
2023/03/15 11:19:20;;;;;;;8.32;3.55;;;;;;;2.17;100.00;96327.38;10371615;28;20919;-61
2023/03/15 11:24:25;;;;;;;9.33;3.03;;;;;;;2.73;100.00;96308.53;10429708;28;20224;-62
2023/03/15 11:29:33;;;;;;;6.57;2.00;;;;;;;3.26;95.34;96275.00;10416556;28;20193;-60
2023/03/15 11:34:44;;;;;;;5.50;2.50;;;;;;;2.93;93.86;96275.94;10431328;28;20236;-61
2023/03/15 11:39:51;;;;;;;7.77;2.20;;;;;;;3.32;91.00;96263.34;10431715;28;20189;-61
2023/03/15 11:44:54;;;;;;;5.03;2.77;;;;;;;3.50;89.70;96259.28;10431846;28;20279;-61
2023/03/15 11:49:57;;;;;;;4.70;2.37;;;;;;;3.83;88.50;96251.47;10431344;28;20203;-61
2023/03/15 11:55:00;;;;;;;13.40;2.40;;;;;;;4.14;88.09;96243.78;10413883;28;20213;-59
2023/03/15 12:00:16;;;;;;;6.60;2.20;;;;;;;3.31;87.76;96251.38;10431298;28;20642;-61
2023/03/15 12:05:58;;;;;;;7.70;2.57;;;;;;;2.93;87.53;96244.88;10415400;28;20294;-60
2023/03/15 12:10:59;;;;;;;6.43;2.80;;;;;;;2.94;88.58;96264.63;10248742;29;20732;-62
2023/03/15 12:15:59;;;;;;;6.07;2.60;;;;;;;2.83;88.31;96262.88;10362409;28;20224;-62
2023/03/15 12:21:07;;;;;;;10.43;2.70;;;;;;;3.51;87.56;96252.38;10415098;28;20228;-62
2023/03/15 12:26:37;;;;;;;8.13;2.30;;;;;;;3.61;84.99;96232.50;10395276;28;20232;-63
2023/03/15 12:32:01;;;;;;;4.47;2.00;;;;;;;3.83;83.58;96204.84;10414631;28;20205;-63
2023/03/15 12:37:05;;;;;;;5.57;2.27;;;;;;;4.88;81.17;96189.03;10406867;28;20294;-62
2023/03/15 12:42:11;;;;;;;5.17;2.10;;;;;;;6.90;72.30;96094.34;10413521;28;20686;-62
2023/03/15 12:47:12;;;;;;;6.30;1.97;;;;;;;7.09;69.72;96091.59;10396000;28;20271;-62
2023/03/15 12:52:15;;;;;;;9.30;2.00;;;;;;;6.67;68.57;96089.56;10412902;28;20181;-62
2023/03/15 12:57:21;;;;;;;6.23;2.00;;;;;;;5.94;70.48;96133.72;10404682;28;20227;-62
2023/03/15 13:02:28;;;;;;;3.00;1.40;;;;;;;3.98;84.08;96333.19;10392353;28;20208;-63
2023/03/15 13:07:50;;;;;;;3.20;2.10;;;;;;;2.53;97.19;96395.34;10411352;28;20271;-61
2023/03/15 13:13:02;;;;;;;3.67;1.57;;;;;;;2.45;98.44;96373.47;10413007;28;20181;-64
2023/03/15 13:18:16;;;;;;;2.37;1.47;;;;;;;2.14;100.00;96408.50;10412466;28;20219;-63
2023/03/15 13:23:20;;;;;;;3.07;1.70;;;;;;;1.24;100.00;96432.06;10427349;28;20221;-63
2023/03/15 13:28:38;;;;;;;2.27;2.00;;;;;;;0.55;100.00;96444.44;10393173;28;20211;-63
2023/03/15 13:33:39;;;;;;;3.63;2.43;;;;;;;0.24;100.00;96452.41;10394301;28;20722;-66
2023/03/15 13:38:47;;;;;;;4.50;2.30;;;;;;;-0.17;100.00;96445.56;10426936;28;20232;-66
2023/03/15 13:43:50;;;;;;;4.13;2.30;;;;;;;-0.62;100.00;96426.97;10411710;28;20232;-66
2023/03/15 13:48:52;;;;;;;5.87;3.17;;;;;;;-0.73;100.00;96407.03;10410507;28;20298;-64
2023/03/15 13:53:55;;;;;;;2.20;2.00;;;;;;;-0.16;100.00;96402.66;10411306;28;20213;-64
2023/03/15 13:58:56;;;;;;;3.97;1.67;;;;;;;-0.05;100.00;96410.50;10393302;28;20224;-65
2023/03/15 14:04:04;;;;;;;4.17;1.90;;;;;;;-0.11;100.00;96413.47;10409547;28;20305;-65
2023/03/15 14:09:23;;;;;;;4.80;2.50;;;;;;;0.01;100.00;96428.16;10392568;28;20254;-62
2023/03/15 14:14:26;;;;;;;5.23;2.33;;;;;;;0.17;100.00;96423.66;10410024;28;20211;-63
2023/03/15 14:19:28;;;;;;;3.17;2.20;;;;;;;0.45;100.00;96415.88;10410179;28;20184;-62
2023/03/15 14:24:36;;;;;;;3.13;2.30;;;;;;;0.65;100.00;96406.84;10409947;28;20224;-63
2023/03/15 14:29:38;;;;;;;5.43;2.90;;;;;;;1.00;100.00;96417.34;10410182;28;20207;-63
2023/03/15 14:34:46;;;;;;;3.13;2.47;;;;;;;0.94;100.00;96411.78;10429076;23;20669;-61
2023/03/15 14:39:46;;;;;;;5.10;2.53;;;;;;;1.32;100.00;96411.72;10408082;28;20203;-60
2023/03/15 14:44:46;;;;;;;5.23;2.50;;;;;;;1.49;100.00;96396.81;10413766;28;20237;-59
2023/03/15 14:49:47;;;;;;;4.93;3.10;;;;;;;0.99;100.00;96389.88;10446749;28;20291;-61
2023/03/15 14:54:48;;;;;;;5.57;2.97;;;;;;;0.83;100.00;96425.41;10400694;28;20231;-58
2023/03/15 14:59:48;;;;;;;3.60;2.30;;;;;;;1.43;100.00;96427.28;10403862;28;20681;-60
2023/03/15 15:04:49;;;;;;;6.40;2.10;;;;;;;1.34;100.00;96411.63;10413484;28;20312;-59
2023/03/15 15:09:50;;;;;;;3.87;3.10;;;;;;;1.76;100.00;96425.84;10387486;28;20651;-59
2023/03/15 15:14:51;;;;;;;4.00;2.37;;;;;;;3.49;100.00;96400.09;10376344;28;20618;-60
2023/03/15 15:19:51;;;;;;;3.77;2.10;;;;;;;4.33;94.32;96346.78;10376102;28;20199;-60
2023/03/15 15:24:51;;;;;;;3.30;3.00;;;;;;;2.44;95.59;96376.19;10375666;28;20228;-59
2023/03/15 15:29:52;;;;;;;5.10;3.27;;;;;;;0.95;100.00;96446.94;10376542;28;20279;-61
2023/03/15 15:34:53;;;;;;;11.07;2.97;;;;;;;1.28;100.00;96443.81;10375934;28;20755;-61
2023/03/15 15:39:54;;;;;;;7.00;3.40;;;;;;;0.98;100.00;96465.63;10412341;28;20200;-61
2023/03/15 15:44:54;;;;;;;5.53;3.63;;;;;;;0.85;100.00;96469.94;10415773;28;20231;-60
2023/03/15 15:49:54;;;;;;;6.73;3.40;;;;;;;0.96;100.00;96471.81;10415730;28;20185;-60
2023/03/15 15:54:55;;;;;;;8.60;3.73;;;;;;;0.79;100.00;96472.94;10415995;28;20243;-60
2023/03/15 15:59:55;;;;;;;6.67;3.60;;;;;;;0.89;100.00;96468.81;10415386;28;20326;-60
2023/03/15 16:04:56;;;;;;;11.73;8.07;;;;;;;3.14;100.00;96436.44;10415122;28;20764;-59
2023/03/15 16:09:57;;;;;;;5.00;3.37;;;;;;;2.44;100.00;96414.97;10413483;28;20639;-59
2023/03/15 16:14:58;;;;;;;4.67;2.90;;;;;;;1.93;100.00;96447.03;10415515;28;20240;-59
2023/03/15 16:19:58;;;;;;;7.50;3.00;;;;;;;1.43;100.00;96471.16;10415380;28;20633;-59
2023/03/15 16:25:00;;;;;;;4.07;3.00;;;;;;;1.33;100.00;96477.91;10414892;28;20251;-60
2023/03/15 16:30:03;;;;;;;11.40;3.30;;;;;;;0.97;100.00;96486.38;10413792;28;20200;-58
2023/03/15 16:35:05;;;;;;;4.80;3.37;;;;;;;0.73;100.00;96507.69;10429252;28;20267;-57
2023/03/15 16:40:14;;;;;;;5.93;3.70;;;;;;;0.48;100.00;96521.34;10413302;28;20260;-58
2023/03/15 16:45:14;;;;;;;8.40;3.80;;;;;;;0.60;100.00;96535.16;10414517;28;20228;-57
2023/03/15 16:50:15;;;;;;;8.67;4.63;;;;;;;0.55;100.00;96540.63;10413883;28;20188;-58
2023/03/15 16:55:17;;;;;;;7.57;4.00;;;;;;;0.49;100.00;96549.59;10412979;28;20627;-60
2023/03/15 17:00:19;;;;;;;6.30;4.20;;;;;;;0.31;100.00;96555.91;10412035;28;20192;-60
2023/03/15 17:05:19;;;;;;;5.20;4.07;;;;;;;0.24;100.00;96563.19;10413440;28;20717;-59
2023/03/15 17:10:26;;;;;;;9.83;4.30;;;;;;;-0.14;100.00;96574.13;10412458;28;20210;-60
2023/03/15 17:15:27;;;;;;;8.77;4.60;;;;;;;-0.27;100.00;96581.78;10412829;28;20624;-59
2023/03/15 17:20:28;;;;;;;8.73;4.23;;;;;;;-0.53;100.00;96591.06;10413465;28;20195;-61
2023/03/15 17:25:28;;;;;;;13.17;7.63;;;;;;;-0.39;100.00;96600.53;10413991;28;20294;-61
2023/03/15 17:30:33;;;;;;;10.93;6.07;;;;;;;-0.77;100.00;96609.56;10412837;28;20196;-61
2023/03/15 17:35:37;;;;;;;6.60;5.37;;;;;;;-0.85;100.00;96619.47;10413090;28;20233;-60
2023/03/15 17:40:37;;;;;;;16.57;9.50;;;;;;;-1.24;100.00;96628.56;10413261;28;20189;-61
2023/03/15 17:45:37;;;;;;;13.33;7.63;;;;;;;-1.43;100.00;96633.88;10412919;28;20221;-57
2023/03/15 17:50:40;;;;;;;7.90;4.73;;;;;;;-1.49;100.00;96642.72;10412286;28;20246;-60
2023/03/15 17:55:40;;;;;;;11.53;6.80;;;;;;;-1.66;100.00;96647.97;10411030;28;20220;-57
2023/03/15 18:00:42;;;;;;;14.43;6.87;;;;;;;-1.76;100.00;96668.19;10412282;28;20690;-59
2023/03/15 18:05:43;;;;;;;22.70;10.27;;;;;;;-1.75;100.00;96671.56;10411364;28;20224;-60
2023/03/15 18:10:44;;;;;;;9.60;6.10;;;;;;;-1.79;100.00;96686.31;10411251;28;20197;-59
2023/03/15 18:15:44;;;;;;;14.00;6.83;;;;;;;-1.82;100.00;96689.06;10411136;28;20296;-60
2023/03/15 18:20:46;;;;;;;11.03;6.70;;;;;;;-1.90;100.00;96698.88;10399253;28;20284;-60
2023/03/15 18:25:47;;;;;;;21.67;8.37;;;;;;;-2.01;100.00;96697.69;10411207;28;20228;-61
2023/03/15 18:30:47;;;;;;;13.87;7.87;;;;;;;-2.00;100.00;96708.81;10410317;28;20204;-60
2023/03/15 18:35:47;;;;;;;16.90;7.13;;;;;;;-2.00;100.00;96706.22;10397297;28;20224;-61
2023/03/15 18:40:50;;;;;;;15.17;6.97;;;;;;;-2.03;100.00;96704.66;10403650;28;20224;-59
2023/03/15 18:45:50;;;;;;;83.17;32.17;;;;;;;-2.02;100.00;96705.47;10410091;28;20220;-60
2023/03/15 18:50:51;;;;;;;27.13;12.47;;;;;;;-2.25;100.00;96709.22;10410193;28;20198;-58
2023/03/15 18:55:51;;;;;;;32.77;15.40;;;;;;;-2.48;100.00;96703.50;10409045;28;20347;-61
2023/03/15 19:00:51;;;;;;;21.33;10.93;;;;;;;-2.42;100.00;96707.50;10410049;28;20675;-60
2023/03/15 19:05:52;;;;;;;55.80;27.63;;;;;;;-2.45;100.00;96712.78;10409096;28;20729;-56
2023/03/15 19:11:00;;;;;;;15.43;5.70;;;;;;;-2.34;100.00;96725.91;10409704;28;20726;-59
2023/03/15 19:16:00;;;;;;;14.87;5.93;;;;;;;-2.49;100.00;96732.63;10409049;28;21059;-59
2023/03/15 19:21:01;;;;;;;11.57;7.17;;;;;;;-2.61;100.00;96739.19;10409344;28;20249;-60
2023/03/15 19:26:01;;;;;;;12.83;5.97;;;;;;;-2.63;100.00;96743.56;10409224;28;20323;-60
2023/03/15 19:31:02;;;;;;;20.73;10.47;;;;;;;-2.63;100.00;96758.94;10409009;28;20192;-60
2023/03/15 19:36:03;;;;;;;9.50;6.20;;;;;;;-2.72;100.00;96767.09;10408994;28;20248;-60
2023/03/15 19:41:05;;;;;;;8.97;6.03;;;;;;;-2.81;100.00;96776.03;10408763;28;20249;-59
2023/03/15 19:46:06;;;;;;;30.30;16.43;;;;;;;-2.98;100.00;96771.69;10413927;28;20569;-58
2023/03/15 19:51:07;;;;;;;11.63;7.60;;;;;;;-3.01;100.00;96779.53;10416612;28;20188;-60
2023/03/15 19:56:08;;;;;;;8.93;5.87;;;;;;;-3.03;100.00;96795.88;10415406;28;20581;-57
2023/03/15 20:01:10;;;;;;;11.70;6.77;;;;;;;-3.12;100.00;96802.28;10416449;28;20200;-59
2023/03/15 20:06:11;;;;;;;10.17;6.03;;;;;;;-3.16;100.00;96813.53;10436485;28;20226;-58
2023/03/15 20:11:19;;;;;;;9.43;6.30;;;;;;;-3.19;100.00;96818.81;10457104;28;20568;-60
2023/03/15 20:16:20;;;;;;;11.83;6.87;;;;;;;-3.21;100.00;96820.63;10456706;28;20300;-58
2023/03/15 20:21:21;;;;;;;8.43;5.30;;;;;;;-3.19;100.00;96823.94;10456619;28;20192;-58
2023/03/15 20:26:23;;;;;;;10.90;5.23;;;;;;;-3.21;100.00;96821.44;10455973;28;20306;-59
2023/03/15 20:31:24;;;;;;;7.17;5.47;;;;;;;-3.28;100.00;96836.25;10455462;28;20266;-60
2023/03/15 20:36:25;;;;;;;9.60;6.43;;;;;;;-3.34;100.00;96828.00;10455184;28;20236;-59
2023/03/15 20:41:25;;;;;;;9.13;5.90;;;;;;;-3.38;100.00;96844.41;10447751;22;20286;-62
2023/03/15 20:46:26;;;;;;;12.43;5.93;;;;;;;-3.45;100.00;96854.91;10393157;28;20213;-60
2023/03/15 20:51:27;;;;;;;11.37;5.33;;;;;;;-3.39;100.00;96858.94;10344035;28;20209;-60
2023/03/15 20:56:28;;;;;;;6.47;4.03;;;;;;;-3.42;100.00;96864.19;10332491;28;20250;-60
2023/03/15 21:01:28;;;;;;;9.40;5.17;;;;;;;-3.45;100.00;96861.78;10332631;28;20354;-63
2023/03/15 21:06:28;;;;;;;10.00;5.23;;;;;;;-3.48;100.00;96867.84;10332781;28;20312;-63
2023/03/15 21:11:29;;;;;;;8.43;5.50;;;;;;;-3.56;100.00;96867.34;10332344;28;20213;-63
2023/03/15 21:16:32;;;;;;;9.40;4.53;;;;;;;-3.56;100.00;96866.53;10332415;28;20189;-63
2023/03/15 21:21:32;;;;;;;13.87;6.97;;;;;;;-3.59;100.00;96872.59;10332121;28;20229;-64
2023/03/15 21:26:32;;;;;;;12.23;6.17;;;;;;;-3.60;100.00;96874.34;10331633;28;20222;-63
2023/03/15 21:31:35;;;;;;;9.87;4.87;;;;;;;-3.58;100.00;96874.28;10331865;28;20371;-63
2023/03/15 21:36:35;;;;;;;7.80;4.87;;;;;;;-3.64;100.00;96885.59;10331183;28;20187;-62
2023/03/15 21:41:35;;;;;;;7.20;3.57;;;;;;;-3.65;100.00;96883.94;10343743;28;20234;-63
2023/03/15 21:46:36;;;;;;;7.80;4.93;;;;;;;-3.63;100.00;96887.28;10349731;28;20308;-64
2023/03/15 21:51:37;;;;;;;12.77;4.80;;;;;;;-3.59;100.00;96887.97;10346118;28;20213;-64
2023/03/15 21:56:37;;;;;;;9.33;4.40;;;;;;;-3.56;100.00;96887.03;10330148;28;20236;-63
2023/03/15 22:01:38;;;;;;;10.57;4.50;;;;;;;-3.51;100.00;96905.56;10331093;28;20221;-64
2023/03/15 22:06:38;;;;;;;10.93;5.20;;;;;;;-3.56;100.00;96902.38;10329766;28;20232;-63
2023/03/15 22:11:39;;;;;;;9.57;4.70;;;;;;;-3.69;100.00;96912.28;10329967;28;20226;-63
2023/03/15 22:16:39;;;;;;;11.23;5.03;;;;;;;-3.80;100.00;96910.19;10329995;28;20206;-63
2023/03/15 22:21:41;;;;;;;10.53;5.80;;;;;;;-3.88;100.00;96907.09;10330309;28;20622;-64
2023/03/15 22:26:44;;;;;;;10.73;5.83;;;;;;;-3.90;100.00;96914.03;10330064;28;20248;-63
2023/03/15 22:31:44;;;;;;;12.67;5.03;;;;;;;-3.82;100.00;96922.22;10330068;28;20227;-62
2023/03/15 22:36:45;;;;;;;7.87;4.70;;;;;;;-3.86;100.00;96925.78;10330244;28;20197;-64
2023/03/15 22:41:45;;;;;;;11.43;5.43;;;;;;;-3.94;100.00;96926.09;10329824;28;20233;-62
2023/03/15 22:46:45;;;;;;;18.57;6.60;;;;;;;-3.95;100.00;96929.56;10329703;28;20265;-62
2023/03/15 22:51:46;;;;;;;14.33;6.37;;;;;;;-3.88;100.00;96930.13;10329379;28;20210;-64
2023/03/15 22:56:46;;;;;;;11.23;4.23;;;;;;;-3.96;100.00;96931.28;10328838;28;20284;-64
2023/03/15 23:01:46;;;;;;;12.50;5.57;;;;;;;-3.91;100.00;96932.81;10335048;28;20228;-63
2023/03/15 23:06:47;;;;;;;11.67;5.77;;;;;;;-3.96;100.00;96941.50;10333498;28;20205;-63
2023/03/15 23:11:48;;;;;;;16.77;5.87;;;;;;;-4.08;100.00;96952.22;10328877;28;20352;-64
2023/03/15 23:16:48;;;;;;;15.27;5.33;;;;;;;-4.05;100.00;96954.66;10328913;28;20194;-64
2023/03/15 23:21:48;;;;;;;10.77;5.73;;;;;;;-4.00;100.00;96945.06;10335316;28;20603;-64